Time;durP1;ratioP1;P1;durP2;ratioP2;P2;SDS_P1;SDS_P2;PMS_P1;PMS_P2;Temp;Humidity;BMP_temperature;BMP_pressure;BME280_temperature;BME280_humidity;BME280_pressure;Samples;Min_cycle;Max_cycle;Signal;HPM_P1;HPM_P2
2022/05/06 00:01:39;;;;;;;14.63;5.50;;;;;;;6.02;38.62;100731.13;5043906;28;20400;-91
2022/05/06 00:04:08;;;;;;;11.02;4.50;;;;;;;6.05;38.33;100729.81;5094045;28;20435;-86
2022/05/06 00:06:38;;;;;;;12.05;4.95;;;;;;;6.03;38.28;100721.09;5043518;28;20358;-85
2022/05/06 00:09:05;;;;;;;14.63;4.47;;;;;;;6.14;38.09;100724.78;5076824;28;20373;-86
2022/05/06 00:11:32;;;;;;;9.35;4.63;;;;;;;6.10;38.00;100721.75;5044704;28;20455;-86
2022/05/06 00:13:59;;;;;;;8.52;4.07;;;;;;;6.11;37.93;100701.66;5060648;28;20435;-90
2022/05/06 00:16:27;;;;;;;9.45;4.43;;;;;;;6.11;37.57;100705.19;5043963;28;20393;-85
2022/05/06 00:18:55;;;;;;;9.18;4.10;;;;;;;6.30;37.58;100732.09;5096773;28;20357;-85
2022/05/06 00:21:26;;;;;;;10.13;4.00;;;;;;;6.19;37.41;100712.13;5061361;28;20423;-86
2022/05/06 00:23:54;;;;;;;9.95;3.83;;;;;;;6.39;37.17;100735.19;5044834;28;20368;-86
2022/05/06 00:26:21;;;;;;;10.63;4.10;;;;;;;6.29;37.26;100719.56;5059849;28;20039;-87
2022/05/06 00:28:49;;;;;;;10.30;4.22;;;;;;;6.38;37.21;100728.94;5076752;28;20036;-86
2022/05/06 00:31:18;;;;;;;23.58;4.88;;;;;;;6.32;37.50;100714.47;5027474;28;20373;-86
2022/05/06 00:33:44;;;;;;;12.30;4.13;;;;;;;6.47;37.51;100729.34;5059094;28;20389;-86
2022/05/06 00:36:15;;;;;;;16.58;5.00;;;;;;;6.58;37.36;100731.09;5058530;28;20389;-86
2022/05/06 00:38:44;;;;;;;13.07;5.63;;;;;;;6.55;37.28;100728.88;5044824;28;20398;-86
2022/05/06 00:41:14;;;;;;;19.48;6.28;;;;;;;6.54;37.08;100738.13;5046492;28;20374;-89
2022/05/06 00:43:42;;;;;;;19.58;7.05;;;;;;;6.53;37.51;100737.31;5063406;28;20389;-89
2022/05/06 00:46:15;;;;;;;15.77;5.63;;;;;;;6.55;37.87;100740.56;5062229;28;20063;-86
2022/05/06 00:48:45;;;;;;;8.77;4.72;;;;;;;6.49;37.21;100733.44;5078990;28;20524;-86
2022/05/06 00:51:15;;;;;;;14.05;4.97;;;;;;;6.56;37.16;100736.00;5097813;28;20411;-86
2022/05/06 00:53:43;;;;;;;14.00;4.25;;;;;;;6.46;36.79;100714.94;5047968;28;20393;-91
2022/05/06 00:56:12;;;;;;;9.35;4.00;;;;;;;6.65;36.93;100744.50;5066142;28;20137;-86
2022/05/06 00:58:40;;;;;;;8.25;4.25;;;;;;;6.62;37.39;100728.69;5081565;28;20458;-86
2022/05/06 01:01:08;;;;;;;10.23;3.83;;;;;;;6.65;37.38;100744.50;5080248;28;20388;-86
2022/05/06 01:03:37;;;;;;;7.70;3.88;;;;;;;6.65;37.73;100742.59;5064561;28;20381;-89
2022/05/06 01:06:13;;;;;;;10.95;4.20;;;;;;;6.63;37.41;100738.53;5062752;28;20455;-85
2022/05/06 01:08:51;;;;;;;12.35;4.10;;;;;;;6.74;37.29;100743.00;5083976;28;20477;-88
2022/05/06 01:11:18;;;;;;;12.32;3.90;;;;;;;6.56;37.31;100716.97;5100214;28;20034;-85
2022/05/06 01:13:47;;;;;;;8.73;3.75;;;;;;;6.73;37.22;100742.19;5118129;28;20036;-85
2022/05/06 01:16:24;;;;;;;9.55;4.40;;;;;;;6.76;37.38;100747.13;5082931;28;20024;-86
2022/05/06 01:18:59;;;;;;;12.80;4.05;;;;;;;6.63;37.48;100724.94;5065718;28;20385;-85
2022/05/06 01:21:27;;;;;;;14.65;3.67;;;;;;;6.70;37.53;100726.38;5113477;28;20388;-86
2022/05/06 01:23:56;;;;;;;8.77;3.90;;;;;;;6.65;37.48;100714.63;5111573;28;20036;-89
2022/05/06 01:26:58;;;;;;;9.13;4.00;;;;;;;6.75;37.23;100728.31;5053119;28;20384;-84
2022/05/06 01:29:30;;;;;;;12.30;4.72;;;;;;;6.80;37.33;100737.38;5046103;28;20427;-85
2022/05/06 01:32:01;;;;;;;12.25;3.70;;;;;;;6.75;37.37;100731.84;5048120;28;20372;-83
2022/05/06 01:34:32;;;;;;;13.35;4.10;;;;;;;6.86;37.09;100743.72;5099629;28;20366;-85
2022/05/06 01:37:02;;;;;;;10.88;3.83;;;;;;;6.79;37.45;100729.50;5081730;28;20436;-85
2022/05/06 01:39:35;;;;;;;11.77;4.18;;;;;;;6.57;36.97;100686.00;5087613;28;20028;-89
2022/05/06 01:42:12;;;;;;;13.55;4.13;;;;;;;6.99;36.81;100754.19;5107480;28;20443;-88
2022/05/06 01:44:47;;;;;;;6.95;3.75;;;;;;;7.00;37.36;100744.13;5070273;28;20366;-87
2022/05/06 01:47:21;;;;;;;13.27;4.07;;;;;;;7.08;37.38;100746.41;5051999;28;20441;-86
2022/05/06 01:49:51;;;;;;;9.38;3.92;;;;;;;6.99;37.05;100737.88;5044862;28;20389;-86
2022/05/06 01:52:21;;;;;;;11.00;4.22;;;;;;;7.00;37.05;100739.50;5094188;28;20439;-85
2022/05/06 01:54:49;;;;;;;8.43;4.15;;;;;;;6.98;37.57;100733.50;5042204;28;20386;-85
2022/05/06 01:57:17;;;;;;;12.23;4.43;;;;;;;7.09;37.46;100756.22;5041329;28;20363;-86
2022/05/06 01:59:44;;;;;;;11.07;4.18;;;;;;;7.11;37.50;100743.16;5058079;28;20397;-91
2022/05/06 02:02:17;;;;;;;11.32;4.38;;;;;;;7.10;37.39;100748.88;5041759;28;20063;-85
2022/05/06 02:07:35;;;;;;;10.68;4.32;;;;;;;7.13;37.81;100757.34;5043220;28;20355;-86
2022/05/06 02:10:03;;;;;;;13.65;4.28;;;;;;;6.96;37.66;100749.25;5026191;28;20078;-90
2022/05/06 02:12:37;;;;;;;10.07;3.72;;;;;;;6.97;37.61;100756.34;5044066;28;20475;-85
2022/05/06 02:15:10;;;;;;;8.05;4.03;;;;;;;6.95;37.86;100755.75;5043426;28;20041;-86
2022/05/06 02:18:15;;;;;;;13.00;4.10;;;;;;;6.89;37.83;100748.63;5046379;28;20358;-90
2022/05/06 02:21:02;;;;;;;12.63;4.97;;;;;;;6.83;38.17;100741.50;5044682;28;20415;-86
2022/05/06 02:23:38;;;;;;;11.82;4.43;;;;;;;6.77;38.15;100731.63;5059717;28;20119;-86
2022/05/06 02:26:25;;;;;;;8.98;4.10;;;;;;;6.77;38.33;100751.47;5056523;28;20428;-86
2022/05/06 02:28:58;;;;;;;14.27;3.97;;;;;;;6.72;37.85;100746.00;5040803;28;20521;-88
2022/05/06 02:34:18;;;;;;;16.02;4.20;;;;;;;6.79;37.92;100748.50;5042178;28;20067;-89
2022/05/06 02:36:49;;;;;;;9.27;3.75;;;;;;;6.87;37.72;100742.63;5040586;28;20449;-86
2022/05/06 02:39:36;;;;;;;17.88;3.97;;;;;;;7.11;37.09;100770.34;5056836;28;20396;-87
2022/05/06 02:42:12;;;;;;;12.10;3.53;;;;;;;7.09;36.59;100758.13;5025835;28;20033;-86
2022/05/06 02:44:46;;;;;;;10.38;3.78;;;;;;;7.02;36.89;100745.53;5057042;28;20373;-92
2022/05/06 02:47:18;;;;;;;10.77;3.70;;;;;;;7.16;36.70;100765.00;5025789;28;20037;-87
2022/05/06 02:49:48;;;;;;;9.30;3.72;;;;;;;7.22;36.74;100768.59;5027175;28;20417;-91
2022/05/06 02:52:20;;;;;;;14.13;3.35;;;;;;;7.24;36.39;100774.59;5027725;28;20354;-89
2022/05/06 02:54:50;;;;;;;10.95;3.28;;;;;;;7.15;36.20;100754.34;5025461;28;20553;-93
2022/05/06 02:57:24;;;;;;;10.45;3.63;;;;;;;7.31;36.49;100775.22;5026202;28;20404;-88
2022/05/06 02:59:54;;;;;;;7.60;3.15;;;;;;;7.25;36.54;100779.78;5002215;28;20395;-92
2022/05/06 03:02:25;;;;;;;9.25;3.10;;;;;;;7.11;36.41;100755.94;4984332;28;20489;-87
2022/05/06 03:04:56;;;;;;;6.70;3.42;;;;;;;7.11;36.99;100755.94;5032944;28;20446;-87
2022/05/06 03:07:23;;;;;;;18.30;3.92;;;;;;;7.27;36.63;100783.06;5015609;28;20442;-87
2022/05/06 03:09:52;;;;;;;9.82;3.58;;;;;;;7.13;36.88;100760.06;5031642;28;20446;-85
2022/05/06 03:12:26;;;;;;;16.58;4.05;;;;;;;7.24;37.19;100786.28;5015205;28;20466;-85
2022/05/06 03:15:05;;;;;;;16.85;3.92;;;;;;;7.26;37.59;100786.06;5032889;28;20499;-92
2022/05/06 03:17:40;;;;;;;10.40;3.47;;;;;;;7.24;37.72;100796.34;5031926;28;20466;-86
2022/05/06 03:20:08;;;;;;;16.73;3.45;;;;;;;7.16;37.01;100784.03;5016361;28;20371;-84
2022/05/06 03:22:50;;;;;;;13.77;3.72;;;;;;;7.13;37.16;100778.28;4983645;28;20429;-87
2022/05/06 03:25:18;;;;;;;16.48;4.10;;;;;;;7.30;36.53;100798.88;5000539;28;20527;-84
2022/05/06 03:28:00;;;;;;;16.83;3.75;;;;;;;7.31;36.77;100791.53;5034113;28;20430;-93
2022/05/06 03:30:28;;;;;;;17.73;3.92;;;;;;;7.28;36.57;100775.72;5001497;28;20494;-86
2022/05/06 03:33:04;;;;;;;29.65;4.20;;;;;;;7.39;36.75;100779.41;5036199;28;20391;-86
2022/05/06 03:35:37;;;;;;;23.70;5.55;;;;;;;7.63;36.84;100805.22;5033548;28;20391;-85
2022/05/06 03:38:06;;;;;;;37.63;4.50;;;;;;;7.53;36.98;100777.91;5018551;28;20382;-87
2022/05/06 03:40:36;;;;;;;15.07;4.38;;;;;;;7.70;37.00;100799.56;5057988;28;20066;-88
2022/05/06 03:43:05;;;;;;;15.00;4.43;;;;;;;7.66;36.63;100780.22;5074528;28;20377;-89
2022/05/06 03:45:38;;;;;;;8.23;4.07;;;;;;;7.89;36.34;100810.91;5040976;28;20466;-89
2022/05/06 03:48:11;;;;;;;16.15;4.65;;;;;;;7.81;36.28;100797.75;5026106;28;20024;-85
2022/05/06 03:53:39;;;;;;;14.65;4.38;;;;;;;7.73;36.46;100791.69;5054662;28;20044;-88
2022/05/06 03:56:08;;;;;;;12.57;3.97;;;;;;;7.72;36.42;100794.69;5060859;28;20092;-88
2022/05/06 03:58:42;;;;;;;18.25;4.43;;;;;;;7.85;37.14;100802.44;5063951;28;20322;-91
2022/05/06 04:01:16;;;;;;;13.35;4.15;;;;;;;7.91;36.95;100785.06;5079341;28;20369;-94
2022/05/06 04:03:47;;;;;;;16.92;4.65;;;;;;;8.21;36.67;100800.84;5030576;28;20425;-86
2022/05/06 04:06:16;;;;;;;16.60;4.28;;;;;;;8.49;36.36;100806.25;5060813;28;20464;-90
2022/05/06 04:08:51;;;;;;;13.10;4.25;;;;;;;8.68;35.67;100796.56;5050886;28;20492;-88
2022/05/06 04:11:21;;;;;;;38.28;5.10;;;;;;;8.92;35.39;100795.03;5047145;28;20381;-91
2022/05/06 04:13:58;;;;;;;27.38;6.40;;;;;;;9.17;34.39;100796.22;5051958;28;20028;-85
2022/05/06 04:16:28;;;;;;;28.77;4.47;;;;;;;9.29;34.70;100782.34;5068886;28;20358;-90
2022/05/06 04:19:00;;;;;;;14.60;4.10;;;;;;;9.49;34.47;100808.88;5050000;28;20499;-85
2022/05/06 04:24:23;;;;;;;12.00;4.18;;;;;;;9.64;33.66;100804.28;5070332;28;20043;-87
2022/05/06 04:26:56;;;;;;;18.95;4.32;;;;;;;9.69;33.53;100794.47;5068698;28;20036;-90
2022/05/06 04:29:24;;;;;;;13.18;4.20;;;;;;;9.74;33.40;100805.41;5050049;28;20373;-90
2022/05/06 04:31:54;;;;;;;19.27;4.93;;;;;;;9.89;34.04;100808.94;5052317;28;20452;-87
2022/05/06 04:34:26;;;;;;;10.70;4.13;;;;;;;9.97;33.73;100796.69;5053280;28;20381;-87
2022/05/06 04:41:49;;;;;;;9.93;3.70;;;;;;;10.18;33.33;100783.00;5042428;28;20052;-88
2022/05/06 04:45:11;;;;;;;36.08;6.35;;;;;;;10.38;33.59;100784.94;4985813;28;20309;-87
2022/05/06 04:57:07;;;;;;;;;;;;;;;11.15;32.39;100801.94;4984214;28;20058;-87
2022/05/06 05:04:19;;;;;;;15.73;3.90;;;;;;;11.56;31.66;100780.66;4940228;29;20055;-88
2022/05/06 05:06:49;;;;;;;9.13;2.90;;;;;;;11.55;30.62;100776.25;4954470;29;20417;-87
2022/05/06 05:09:19;;;;;;;13.57;3.10;;;;;;;11.76;30.15;100793.41;4940350;29;20433;-86
2022/05/06 05:19:07;;;;;;;22.25;3.50;;;;;;;12.66;29.20;100786.63;4956318;29;20151;-85
2022/05/06 05:28:51;;;;;;;8.18;3.20;;;;;;;13.27;28.36;100796.88;4950084;28;20396;-85
2022/05/06 05:31:18;;;;;;;8.52;3.47;;;;;;;13.39;28.39;100786.28;5050188;28;20051;-86
2022/05/06 05:33:48;;;;;;;16.95;3.65;;;;;;;13.57;27.36;100806.63;5027265;28;20043;-88
2022/05/06 05:36:17;;;;;;;22.65;4.13;;;;;;;13.62;27.47;100811.25;5102569;23;20360;-90
2022/05/06 05:38:43;;;;;;;;;;;;;;;13.69;26.53;100816.38;5061205;28;20480;-90
2022/05/06 05:41:11;;;;;;;25.80;3.75;;;;;;;13.67;27.00;100782.88;5011159;28;20314;-91
2022/05/06 05:49:13;;;;;;;9.70;3.15;;;;;;;13.88;25.97;100803.47;5045281;28;20390;-90
2022/05/06 05:51:47;;;;;;;5.90;3.40;;;;;;;13.72;25.35;100796.56;5062880;28;20403;-90
2022/05/06 05:54:15;;;;;;;9.88;3.22;;;;;;;13.74;25.66;100805.31;5030304;28;20386;-90
2022/05/06 05:56:45;;;;;;;9.85;3.08;;;;;;;13.71;25.71;100801.25;5050976;28;20359;-89
2022/05/06 05:59:13;;;;;;;8.05;3.15;;;;;;;13.68;25.32;100776.28;5043190;28;20043;-92
2022/05/06 06:01:42;;;;;;;7.20;3.00;;;;;;;13.89;25.71;100807.03;5065013;28;20036;-90
2022/05/06 06:04:11;;;;;;;6.18;3.15;;;;;;;14.00;26.30;100794.72;5047489;28;20043;-90
2022/05/06 06:06:43;;;;;;;10.55;3.45;;;;;;;13.93;26.46;100786.06;5062110;28;20040;-91
2022/05/06 06:09:13;;;;;;;11.90;3.67;;;;;;;14.06;25.98;100786.09;5045912;28;20509;-92
2022/05/06 06:11:41;;;;;;;14.35;3.63;;;;;;;14.38;25.81;100814.75;5043978;28;20382;-91
2022/05/06 06:14:11;;;;;;;11.40;3.67;;;;;;;14.16;24.61;100782.38;5044400;28;20406;-90
2022/05/06 06:16:38;;;;;;;16.17;3.67;;;;;;;14.23;25.30;100807.53;5046233;28;20363;-90
2022/05/06 06:19:07;;;;;;;14.50;4.18;;;;;;;14.28;25.09;100799.22;5044978;28;20029;-90
2022/05/06 06:21:39;;;;;;;11.18;3.38;;;;;;;14.15;24.29;100778.00;5062079;28;20036;-90
2022/05/06 06:24:06;;;;;;;17.77;4.18;;;;;;;14.24;24.57;100783.63;5044489;28;20489;-89
2022/05/06 06:26:43;;;;;;;14.27;4.43;;;;;;;14.39;24.96;100805.34;5048759;28;20035;-91
2022/05/06 06:29:21;;;;;;;8.02;3.75;;;;;;;14.60;24.23;100816.03;5031382;28;20104;-86
2022/05/06 06:31:50;;;;;;;7.88;3.20;;;;;;;14.51;24.36;100791.16;5017568;28;20446;-91
2022/05/06 06:34:17;;;;;;;8.88;3.53;;;;;;;14.47;24.85;100771.66;5065933;28;20398;-90
2022/05/06 06:36:46;;;;;;;17.65;3.80;;;;;;;14.55;24.04;100770.16;5030010;28;20041;-90
2022/05/06 06:39:14;;;;;;;11.27;4.20;;;;;;;14.80;24.60;100799.97;5027226;28;20060;-90
2022/05/06 06:41:45;;;;;;;34.50;4.57;;;;;;;14.75;24.01;100775.28;5022684;28;20383;-88
2022/05/06 06:51:50;;;;;;;8.43;4.00;;;;;;;15.15;24.21;100799.53;5041830;28;20425;-86
2022/05/06 06:54:40;;;;;;;12.68;3.95;;;;;;;14.92;25.24;100740.81;5037464;28;20511;-89
2022/05/06 06:57:08;;;;;;;11.90;3.67;;;;;;;15.11;24.50;100769.03;5024312;28;20063;-91
2022/05/06 06:59:35;;;;;;;11.77;4.50;;;;;;;15.12;24.08;100773.44;5041094;28;20033;-91
2022/05/06 07:02:02;;;;;;;10.75;3.78;;;;;;;15.37;23.64;100790.56;5003418;28;20037;-86
2022/05/06 07:04:34;;;;;;;;;;;;;;;15.55;23.75;100803.34;5040153;28;20041;-87
2022/05/06 07:12:33;;;;;;;10.48;5.95;;;;;;;15.45;23.82;100771.31;5019498;28;20394;-89
2022/05/06 07:14:59;;;;;;;16.23;4.10;;;;;;;15.66;23.19;100791.03;5035996;28;20124;-89
2022/05/06 07:17:26;;;;;;;9.43;3.90;;;;;;;15.63;23.05;100786.09;5019950;28;20497;-88
2022/05/06 07:19:54;;;;;;;12.07;4.07;;;;;;;15.59;23.75;100773.22;5038284;28;20406;-88
2022/05/06 07:22:21;;;;;;;8.32;4.03;;;;;;;15.89;23.75;100786.34;5038701;28;20060;-89
2022/05/06 07:24:49;;;;;;;8.30;3.40;;;;;;;15.90;22.45;100768.66;5019680;28;20067;-88
2022/05/06 07:27:18;;;;;;;28.70;4.38;;;;;;;15.88;22.54;100770.09;5008674;28;20456;-87
2022/05/06 07:29:44;;;;;;;7.30;3.13;;;;;;;16.09;21.81;100792.47;5042040;28;20426;-86
2022/05/06 07:32:12;;;;;;;8.52;3.30;;;;;;;15.82;21.92;100738.25;5021991;28;20394;-80
2022/05/06 07:34:39;;;;;;;6.75;3.53;;;;;;;16.13;21.51;100791.53;5035404;28;20437;-80
2022/05/06 07:37:05;;;;;;;9.75;3.00;;;;;;;16.07;21.12;100781.75;5033879;28;20403;-80
2022/05/06 07:39:32;;;;;;;52.28;16.05;;;;;;;15.96;21.51;100775.69;5034229;28;20510;-80
2022/05/06 07:42:00;;;;;;;49.90;12.50;;;;;;;16.08;21.61;100763.25;5033589;28;20483;-80
2022/05/06 07:44:28;;;;;;;16.48;3.67;;;;;;;16.10;20.92;100767.34;5015444;28;20390;-81
2022/05/06 07:46:55;;;;;;;6.18;3.25;;;;;;;16.01;20.61;100765.66;5033384;28;20391;-78
2022/05/06 07:49:23;;;;;;;15.65;4.45;;;;;;;16.23;20.75;100773.09;5033651;28;20540;-79
2022/05/06 07:51:50;;;;;;;7.57;3.75;;;;;;;16.48;21.49;100780.69;5015215;28;20546;-78
2022/05/06 07:54:19;;;;;;;8.77;3.95;;;;;;;16.30;21.52;100756.91;5018152;28;20536;-88
2022/05/06 07:56:48;;;;;;;9.48;4.18;;;;;;;16.41;21.71;100758.25;5036204;28;20060;-88
2022/05/06 07:59:14;;;;;;;7.95;4.38;;;;;;;16.42;20.51;100765.41;5035278;28;20386;-80
2022/05/06 08:04:34;;;;;;;12.60;4.30;;;;;;;16.30;20.11;100756.91;4990652;28;20399;-88
2022/05/06 08:07:02;;;;;;;23.65;4.93;;;;;;;16.20;20.62;100769.03;5035754;28;20364;-80
2022/05/06 08:09:29;;;;;;;34.58;7.35;;;;;;;16.28;20.87;100748.13;5017051;28;20376;-81
2022/05/06 08:11:57;;;;;;;13.13;5.10;;;;;;;16.30;20.75;100756.91;5033752;28;20415;-80
2022/05/06 08:14:24;;;;;;;10.95;6.57;;;;;;;16.34;20.75;100752.38;5016136;28;20536;-81
2022/05/06 08:16:53;;;;;;;;;;;;;;;16.34;20.03;100763.44;5033540;28;20497;-80
2022/05/06 08:19:20;;;;;;;10.20;5.47;;;;;;;16.21;20.54;100759.63;5034108;28;20374;-82
2022/05/06 08:21:47;;;;;;;13.00;5.25;;;;;;;16.04;20.82;100743.78;5032835;28;20368;-79
2022/05/06 08:24:13;;;;;;;12.77;5.25;;;;;;;15.99;20.68;100741.13;5033660;28;20488;-83
2022/05/06 08:26:40;;;;;;;54.15;26.88;;;;;;;16.10;20.43;100742.50;5015555;28;20478;-80
2022/05/06 08:29:08;;;;;;;671.88;246.48;;;;;;;16.06;19.91;100730.50;5033124;28;20478;-80
2022/05/06 08:31:37;;;;;;;256.42;57.33;;;;;;;16.04;19.87;100720.88;5032848;28;20498;-79
2022/05/06 08:34:09;;;;;;;76.35;24.08;;;;;;;16.27;20.43;100739.03;5033549;28;20483;-78
2022/05/06 08:36:37;;;;;;;70.03;18.25;;;;;;;16.35;19.94;100738.25;5047282;28;20438;-79
2022/05/06 08:39:06;;;;;;;285.30;58.33;;;;;;;16.77;20.25;100727.75;5035002;28;20483;-78
2022/05/06 08:41:35;;;;;;;115.45;30.17;;;;;;;17.05;19.13;100738.53;5053424;28;20033;-79
2022/05/06 08:52:34;;;;;;;226.55;57.10;;;;;;;17.61;19.63;100721.06;5056280;28;20493;-77
2022/05/06 08:55:02;;;;;;;393.70;91.47;;;;;;;17.69;18.80;100724.97;5053767;28;20363;-78
2022/05/06 08:57:30;;;;;;;304.02;70.68;;;;;;;17.53;18.64;100734.88;5053229;28;20378;-80
2022/05/06 08:59:57;;;;;;;184.35;43.58;;;;;;;17.59;18.76;100734.41;5055430;28;20383;-79
2022/05/06 09:02:24;;;;;;;147.48;35.47;;;;;;;17.79;18.81;100721.88;5056332;28;20472;-79
2022/05/06 09:04:51;;;;;;;298.35;70.63;;;;;;;18.06;18.15;100728.19;5055712;28;20474;-79
2022/05/06 09:07:21;;;;;;;458.27;117.57;;;;;;;18.05;18.45;100730.16;5055913;28;20389;-81
2022/05/06 09:10:09;;;;;;;499.77;113.07;;;;;;;17.94;18.45;100730.81;5056872;28;20596;-79
2022/05/06 09:12:44;;;;;;;866.22;297.23;;;;;;;17.84;18.72;100723.66;5055211;28;20520;-79
2022/05/06 09:18:10;;;;;;;182.80;43.15;;;;;;;17.63;17.66;100709.66;5047607;28;20044;-78
2022/05/06 09:20:37;;;;;;;154.18;37.70;;;;;;;17.76;17.98;100719.78;5056025;28;20040;-78
2022/05/06 09:23:25;;;;;;;128.27;36.80;;;;;;;17.70;17.72;100714.69;5054259;28;20390;-78
2022/05/06 09:25:53;;;;;;;94.00;18.88;;;;;;;17.63;18.36;100712.44;5054123;28;20457;-78
2022/05/06 09:28:27;;;;;;;137.38;36.65;;;;;;;17.79;18.16;100718.31;5056040;28;20438;-78
2022/05/06 09:31:06;;;;;;;100.82;25.52;;;;;;;17.79;17.64;100732.13;5056574;28;20060;-76
2022/05/06 09:33:36;;;;;;;79.88;18.77;;;;;;;17.61;17.69;100723.84;5037599;28;20509;-78
2022/05/06 09:36:26;;;;;;;29.50;9.98;;;;;;;17.69;18.24;100724.97;5055066;28;20394;-78
2022/05/06 09:39:05;;;;;;;19.45;5.35;;;;;;;17.53;17.97;100735.69;5055351;28;20440;-79
2022/05/06 09:41:32;;;;;;;23.58;7.50;;;;;;;17.57;18.69;100720.06;5039328;28;20424;-78
2022/05/06 09:44:04;;;;;;;37.05;10.88;;;;;;;17.29;18.07;100719.59;5055200;28;20549;-78
2022/05/06 09:46:31;;;;;;;34.67;10.05;;;;;;;17.25;18.48;100707.56;5054959;28;20417;-79
2022/05/06 09:49:00;;;;;;;21.00;6.68;;;;;;;17.37;18.69;100713.22;5055209;28;20443;-78
2022/05/06 09:51:34;;;;;;;62.22;6.50;;;;;;;17.41;18.17;100707.88;5055570;28;20488;-80
2022/05/06 09:54:05;;;;;;;11.20;4.28;;;;;;;17.58;17.84;100707.03;5053851;28;20438;-80
2022/05/06 09:56:32;;;;;;;18.77;6.00;;;;;;;17.74;18.07;100693.53;5037287;28;20359;-78
2022/05/06 09:58:59;;;;;;;29.42;10.25;;;;;;;17.94;18.61;100706.72;5055599;28;20493;-81
2022/05/06 10:01:26;;;;;;;8.25;4.10;;;;;;;18.11;17.38;100708.63;5056919;28;20501;-81
2022/05/06 10:03:53;;;;;;;12.98;4.15;;;;;;;18.02;17.48;100694.03;5056179;28;20474;-78
2022/05/06 10:06:23;;;;;;;;;;;;;;;18.05;17.65;100709.97;5055731;28;20341;-79
2022/05/06 10:08:53;;;;;;;17.40;5.90;;;;;;;18.11;18.35;100700.31;5055839;28;20365;-78
2022/05/06 10:11:28;;;;;;;18.35;5.88;;;;;;;18.40;17.61;100701.53;5054457;28;20637;-78
2022/05/06 10:14:01;;;;;;;19.65;5.95;;;;;;;18.51;18.14;100697.28;5055323;28;20379;-80
2022/05/06 10:16:37;;;;;;;59.67;6.15;;;;;;;18.25;17.78;100705.69;5037612;28;20036;-79
2022/05/06 10:19:23;;;;;;;14.65;6.28;;;;;;;18.39;17.96;100697.16;5055482;28;20391;-79
2022/05/06 10:21:50;;;;;;;16.27;4.68;;;;;;;18.47;17.09;100693.53;5058169;28;20037;-81
2022/05/06 10:24:17;;;;;;;17.60;5.93;;;;;;;18.30;17.10;100697.97;5054490;28;20417;-79
2022/05/06 10:26:45;;;;;;;15.48;5.97;;;;;;;18.26;18.53;100699.00;5054494;28;20382;-79
2022/05/06 10:32:29;;;;;;;12.55;4.97;;;;;;;18.06;18.05;100695.78;5055227;28;20414;-78
2022/05/06 10:34:55;;;;;;;12.80;5.63;;;;;;;18.23;18.35;100697.69;5065674;28;20040;-79
2022/05/06 10:37:22;;;;;;;;;;;;;;;18.24;18.36;100698.50;5056900;28;20410;-78
2022/05/06 10:39:50;;;;;;;13.45;5.97;;;;;;;17.89;17.76;100659.06;5037204;28;20289;-78
2022/05/06 10:42:18;;;;;;;25.23;8.38;;;;;;;17.99;18.26;100681.66;5055689;28;20367;-82
2022/05/06 10:44:48;;;;;;;27.35;8.63;;;;;;;18.27;18.13;100689.53;5054281;28;20394;-80
2022/05/06 10:47:20;;;;;;;80.70;16.35;;;;;;;18.52;19.10;100693.34;5056952;28;20417;-79
2022/05/06 10:49:51;;;;;;;54.38;9.73;;;;;;;18.67;18.58;100686.41;5057588;28;20441;-78
2022/05/06 10:52:24;;;;;;;8.48;4.20;;;;;;;18.56;17.64;100691.53;5054006;28;20429;-79
2022/05/06 10:54:54;;;;;;;193.43;84.30;;;;;;;18.14;17.24;100668.41;5054319;28;20548;-79
2022/05/06 10:57:25;;;;;;;39.42;11.40;;;;;;;18.22;17.77;100670.34;5053965;28;20436;-80
2022/05/06 11:00:11;;;;;;;53.03;12.52;;;;;;;18.41;17.45;100653.31;5036987;28;20476;-78
2022/05/06 11:02:39;;;;;;;30.15;7.35;;;;;;;18.91;17.76;100658.13;5053720;28;20578;-79
2022/05/06 11:05:09;;;;;;;160.52;45.85;;;;;;;18.94;16.88;100665.75;5053922;28;20048;-79
2022/05/06 11:07:41;;;;;;;16.70;4.68;;;;;;;18.85;16.50;100668.59;5035606;28;20397;-79
2022/05/06 11:10:13;;;;;;;26.15;5.20;;;;;;;18.68;17.17;100655.63;5053642;28;20475;-79
2022/05/06 11:12:54;;;;;;;49.97;9.15;;;;;;;18.47;17.48;100660.28;5053524;28;20438;-79
2022/05/06 11:15:24;;;;;;;68.15;12.05;;;;;;;18.24;17.73;100656.97;5053221;28;20371;-79
2022/05/06 11:17:54;;;;;;;48.47;10.80;;;;;;;18.24;18.41;100654.22;5053619;28;20082;-78
2022/05/06 11:20:32;;;;;;;123.50;30.65;;;;;;;18.61;18.06;100651.75;5054022;28;20060;-78
2022/05/06 11:23:13;;;;;;;30.42;8.18;;;;;;;18.91;17.08;100656.19;5035916;28;20481;-82
2022/05/06 11:25:45;;;;;;;121.45;30.38;;;;;;;18.85;17.43;100651.97;5036248;28;20450;-80
2022/05/06 11:28:17;;;;;;;12.07;4.53;;;;;;;18.96;16.98;100644.88;5057073;28;20374;-79
2022/05/06 11:30:48;;;;;;;23.65;7.03;;;;;;;19.14;16.13;100645.56;5037886;28;20033;-82
2022/05/06 11:33:26;;;;;;;50.65;12.25;;;;;;;19.09;17.15;100642.19;5054398;28;20470;-79
2022/05/06 11:36:05;;;;;;;52.58;12.65;;;;;;;18.86;16.83;100623.09;5054392;28;20045;-79
2022/05/06 11:38:37;;;;;;;41.00;10.80;;;;;;;18.98;17.37;100648.13;5054347;28;20491;-79
2022/05/06 11:41:08;;;;;;;26.88;9.30;;;;;;;18.89;16.92;100652.91;5053433;28;20422;-78
2022/05/06 11:43:35;;;;;;;20.05;6.10;;;;;;;19.00;16.70;100633.94;5053066;28;20493;-81
2022/05/06 11:48:51;;;;;;;47.67;13.63;;;;;;;19.37;17.38;100643.25;5035323;28;20434;-79
2022/05/06 11:51:20;;;;;;;27.13;7.55;;;;;;;19.41;17.07;100635.06;5054050;28;20378;-79
2022/05/06 11:53:49;;;;;;;14.82;5.57;;;;;;;19.27;16.15;100621.50;5053453;28;20478;-79
2022/05/06 11:56:21;;;;;;;44.58;11.93;;;;;;;19.42;17.43;100626.41;5035352;28;20386;-81
2022/05/06 11:58:49;;;;;;;16.45;4.38;;;;;;;19.31;16.90;100627.97;5054220;28;20389;-78
2022/05/06 12:01:30;;;;;;;14.75;5.18;;;;;;;19.16;16.20;100623.84;5054172;28;20367;-79
2022/05/06 12:04:08;;;;;;;24.90;6.97;;;;;;;19.40;16.81;100627.88;5052664;28;20386;-78
2022/05/06 12:06:38;;;;;;;12.88;5.43;;;;;;;19.48;16.72;100615.91;5019094;28;20378;-80
2022/05/06 12:09:13;;;;;;;18.60;5.90;;;;;;;19.08;16.79;100618.41;5035487;28;20393;-78
2022/05/06 12:11:41;;;;;;;33.63;9.27;;;;;;;18.82;17.66;100622.16;5055271;28;20547;-78
2022/05/06 12:14:17;;;;;;;33.88;10.02;;;;;;;18.59;17.85;100621.63;5053976;28;20493;-79
2022/05/06 12:16:58;;;;;;;24.47;8.70;;;;;;;19.01;18.43;100614.19;5052295;28;20390;-79
2022/05/06 12:19:34;;;;;;;31.52;9.82;;;;;;;19.22;17.31;100608.63;5053056;28;20478;-79
2022/05/06 12:22:12;;;;;;;11.63;4.93;;;;;;;19.41;17.26;100604.56;5052986;28;20398;-78
2022/05/06 12:24:47;;;;;;;41.85;10.82;;;;;;;19.55;17.03;100604.25;5053908;28;20500;-78
2022/05/06 12:27:27;;;;;;;49.70;10.07;;;;;;;19.75;17.08;100592.31;5034971;28;20425;-79
2022/05/06 12:29:55;;;;;;;35.67;9.70;;;;;;;19.80;17.14;100594.06;5054009;28;20466;-82
2022/05/06 12:32:21;;;;;;;31.00;11.68;;;;;;;19.90;16.47;100590.84;5053117;28;20446;-79
2022/05/06 12:35:04;;;;;;;;;;;;;;;19.96;16.04;100592.22;5037184;28;20481;-78
2022/05/06 12:37:31;;;;;;;18.88;5.13;;;;;;;19.79;16.42;100593.25;5058011;28;20376;-79
2022/05/06 12:40:01;;;;;;;;;;;;;;;19.87;16.15;100586.81;5061438;28;20432;-79
2022/05/06 12:42:29;;;;;;;11.93;5.30;;;;;;;19.75;16.34;100581.22;5043868;28;19955;-80
2022/05/06 12:45:03;;;;;;;13.20;5.38;;;;;;;19.81;15.63;100574.31;5058358;28;20428;-78
2022/05/06 12:50:16;;;;;;;27.25;12.57;;;;;;;19.55;16.47;100569.00;5061649;28;20413;-81
2022/05/06 12:52:43;;;;;;;105.03;27.45;;;;;;;19.67;15.55;100571.03;5061899;28;20430;-84
2022/05/06 12:55:10;;;;;;;219.02;46.40;;;;;;;19.65;15.97;100556.69;5042424;28;20040;-80
2022/05/06 12:57:37;;;;;;;84.97;22.48;;;;;;;19.80;15.13;100556.03;5059363;28;20368;-81
2022/05/06 13:00:05;;;;;;;370.67;93.22;;;;;;;19.98;16.43;100566.91;5058920;28;20556;-81
2022/05/06 13:02:32;;;;;;;58.50;13.60;;;;;;;19.98;15.05;100570.50;5058247;28;20040;-87
2022/05/06 13:04:59;;;;;;;441.13;174.80;;;;;;;19.86;16.20;100560.19;5060855;28;20032;-91
2022/05/06 13:07:26;;;;;;;236.93;57.38;;;;;;;19.64;16.15;100558.66;5059430;28;20478;-83